sensor_id;sensor_type;location;lat;lon;timestamp;P1;durP1;ratioP1;P2;durP2;ratioP2
2956;SDS011;1488;51.548;7.222;2023-02-08T00:02:04;2.10;;;1.90;;
2956;SDS011;1488;51.548;7.222;2023-02-08T00:04:32;2.33;;;2.13;;
2956;SDS011;1488;51.548;7.222;2023-02-08T00:06:59;2.50;;;2.30;;
2956;SDS011;1488;51.548;7.222;2023-02-08T00:09:26;2.30;;;2.17;;
2956;SDS011;1488;51.548;7.222;2023-02-08T00:11:53;2.90;;;2.00;;
2956;SDS011;1488;51.548;7.222;2023-02-08T00:14:20;2.50;;;2.30;;
2956;SDS011;1488;51.548;7.222;2023-02-08T00:16:46;2.43;;;2.20;;
2956;SDS011;1488;51.548;7.222;2023-02-08T00:19:13;2.37;;;2.17;;
2956;SDS011;1488;51.548;7.222;2023-02-08T00:21:41;3.03;;;2.70;;
2956;SDS011;1488;51.548;7.222;2023-02-08T00:24:08;2.43;;;2.20;;
2956;SDS011;1488;51.548;7.222;2023-02-08T00:26:35;2.90;;;2.60;;
2956;SDS011;1488;51.548;7.222;2023-02-08T00:29:02;2.27;;;2.17;;
2956;SDS011;1488;51.548;7.222;2023-02-08T00:31:29;2.20;;;2.10;;
2956;SDS011;1488;51.548;7.222;2023-02-08T00:33:56;2.17;;;2.00;;
2956;SDS011;1488;51.548;7.222;2023-02-08T00:36:22;2.23;;;2.13;;
2956;SDS011;1488;51.548;7.222;2023-02-08T00:38:50;2.70;;;2.50;;
2956;SDS011;1488;51.548;7.222;2023-02-08T00:41:17;2.70;;;2.50;;
2956;SDS011;1488;51.548;7.222;2023-02-08T00:43:44;2.73;;;2.40;;
2956;SDS011;1488;51.548;7.222;2023-02-08T00:46:11;2.53;;;2.33;;
2956;SDS011;1488;51.548;7.222;2023-02-08T00:48:37;2.53;;;2.33;;
2956;SDS011;1488;51.548;7.222;2023-02-08T00:51:05;2.50;;;2.30;;
2956;SDS011;1488;51.548;7.222;2023-02-08T00:53:34;2.43;;;2.23;;
2956;SDS011;1488;51.548;7.222;2023-02-08T00:56:03;2.63;;;2.43;;
2956;SDS011;1488;51.548;7.222;2023-02-08T00:58:30;2.77;;;2.57;;
2956;SDS011;1488;51.548;7.222;2023-02-08T01:00:57;2.47;;;2.27;;
2956;SDS011;1488;51.548;7.222;2023-02-08T01:03:24;3.10;;;2.30;;
2956;SDS011;1488;51.548;7.222;2023-02-08T01:05:51;2.60;;;2.40;;
2956;SDS011;1488;51.548;7.222;2023-02-08T01:08:18;2.40;;;2.30;;
2956;SDS011;1488;51.548;7.222;2023-02-08T01:10:46;2.00;;;1.80;;
2956;SDS011;1488;51.548;7.222;2023-02-08T01:13:14;2.73;;;2.53;;
2956;SDS011;1488;51.548;7.222;2023-02-08T01:15:41;2.33;;;2.23;;
2956;SDS011;1488;51.548;7.222;2023-02-08T01:18:07;2.40;;;2.20;;
2956;SDS011;1488;51.548;7.222;2023-02-08T01:20:34;2.47;;;2.27;;
2956;SDS011;1488;51.548;7.222;2023-02-08T01:23:02;2.60;;;2.40;;
2956;SDS011;1488;51.548;7.222;2023-02-08T01:25:29;2.77;;;2.47;;
2956;SDS011;1488;51.548;7.222;2023-02-08T01:27:56;2.57;;;2.37;;
2956;SDS011;1488;51.548;7.222;2023-02-08T01:30:24;2.30;;;2.10;;
2956;SDS011;1488;51.548;7.222;2023-02-08T01:32:51;2.43;;;2.27;;
2956;SDS011;1488;51.548;7.222;2023-02-08T01:35:18;2.80;;;2.60;;
2956;SDS011;1488;51.548;7.222;2023-02-08T01:37:45;2.67;;;2.30;;
2956;SDS011;1488;51.548;7.222;2023-02-08T01:40:11;2.60;;;2.40;;
2956;SDS011;1488;51.548;7.222;2023-02-08T01:42:38;2.27;;;2.07;;
2956;SDS011;1488;51.548;7.222;2023-02-08T01:47:52;2.67;;;2.47;;
2956;SDS011;1488;51.548;7.222;2023-02-08T01:50:22;2.70;;;2.50;;
2956;SDS011;1488;51.548;7.222;2023-02-08T01:52:51;2.30;;;2.10;;
2956;SDS011;1488;51.548;7.222;2023-02-08T01:55:19;2.20;;;2.10;;
2956;SDS011;1488;51.548;7.222;2023-02-08T01:57:51;2.73;;;2.53;;
2956;SDS011;1488;51.548;7.222;2023-02-08T02:00:21;2.47;;;2.20;;
2956;SDS011;1488;51.548;7.222;2023-02-08T02:02:51;2.60;;;2.40;;
2956;SDS011;1488;51.548;7.222;2023-02-08T02:05:20;2.40;;;2.20;;
2956;SDS011;1488;51.548;7.222;2023-02-08T02:07:49;2.10;;;2.00;;
2956;SDS011;1488;51.548;7.222;2023-02-08T02:10:20;2.33;;;2.23;;
2956;SDS011;1488;51.548;7.222;2023-02-08T02:12:50;1.97;;;1.87;;
2956;SDS011;1488;51.548;7.222;2023-02-08T02:15:19;2.47;;;2.27;;
2956;SDS011;1488;51.548;7.222;2023-02-08T02:17:45;2.70;;;2.50;;
2956;SDS011;1488;51.548;7.222;2023-02-08T02:20:15;2.20;;;2.07;;
2956;SDS011;1488;51.548;7.222;2023-02-08T02:23:01;2.03;;;1.93;;
2956;SDS011;1488;51.548;7.222;2023-02-08T02:29:04;2.73;;;2.53;;
2956;SDS011;1488;51.548;7.222;2023-02-08T02:31:55;2.40;;;2.20;;
2956;SDS011;1488;51.548;7.222;2023-02-08T02:34:39;2.30;;;2.20;;
2956;SDS011;1488;51.548;7.222;2023-02-08T02:37:11;3.17;;;2.87;;
2956;SDS011;1488;51.548;7.222;2023-02-08T02:39:50;2.67;;;2.47;;
2956;SDS011;1488;51.548;7.222;2023-02-08T02:42:25;2.70;;;2.50;;
2956;SDS011;1488;51.548;7.222;2023-02-08T02:45:19;4.00;;;2.43;;
2956;SDS011;1488;51.548;7.222;2023-02-08T02:47:58;2.50;;;2.30;;
2956;SDS011;1488;51.548;7.222;2023-02-08T02:50:31;2.43;;;2.23;;
2956;SDS011;1488;51.548;7.222;2023-02-08T02:53:02;2.60;;;2.40;;
2956;SDS011;1488;51.548;7.222;2023-02-08T02:55:39;3.10;;;2.50;;
2956;SDS011;1488;51.548;7.222;2023-02-08T02:58:08;2.80;;;2.60;;
2956;SDS011;1488;51.548;7.222;2023-02-08T03:00:38;3.17;;;2.97;;
2956;SDS011;1488;51.548;7.222;2023-02-08T03:03:08;2.37;;;2.17;;
2956;SDS011;1488;51.548;7.222;2023-02-08T03:05:43;2.47;;;2.27;;
2956;SDS011;1488;51.548;7.222;2023-02-08T03:08:22;3.33;;;2.40;;
2956;SDS011;1488;51.548;7.222;2023-02-08T03:11:05;2.43;;;2.23;;
2956;SDS011;1488;51.548;7.222;2023-02-08T03:13:43;2.60;;;2.40;;
2956;SDS011;1488;51.548;7.222;2023-02-08T03:16:24;3.20;;;2.40;;
2956;SDS011;1488;51.548;7.222;2023-02-08T03:19:01;3.00;;;2.80;;
2956;SDS011;1488;51.548;7.222;2023-02-08T03:21:36;2.57;;;2.40;;
2956;SDS011;1488;51.548;7.222;2023-02-08T03:24:08;2.50;;;2.30;;
2956;SDS011;1488;51.548;7.222;2023-02-08T03:26:51;2.67;;;2.47;;
2956;SDS011;1488;51.548;7.222;2023-02-08T03:29:22;2.33;;;2.13;;
2956;SDS011;1488;51.548;7.222;2023-02-08T03:31:57;2.90;;;2.70;;
2956;SDS011;1488;51.548;7.222;2023-02-08T03:34:30;2.60;;;2.40;;
2956;SDS011;1488;51.548;7.222;2023-02-08T03:37:06;2.60;;;2.40;;
2956;SDS011;1488;51.548;7.222;2023-02-08T03:39:38;2.30;;;2.10;;
2956;SDS011;1488;51.548;7.222;2023-02-08T03:42:07;2.17;;;1.97;;
2956;SDS011;1488;51.548;7.222;2023-02-08T03:44:37;2.40;;;2.20;;
2956;SDS011;1488;51.548;7.222;2023-02-08T03:47:08;2.30;;;2.10;;
2956;SDS011;1488;51.548;7.222;2023-02-08T03:49:42;2.60;;;2.40;;
2956;SDS011;1488;51.548;7.222;2023-02-08T03:52:11;2.73;;;2.53;;
2956;SDS011;1488;51.548;7.222;2023-02-08T03:58:02;2.60;;;2.40;;
2956;SDS011;1488;51.548;7.222;2023-02-08T04:00:32;3.00;;;2.80;;
2956;SDS011;1488;51.548;7.222;2023-02-08T04:03:04;2.20;;;2.07;;
2956;SDS011;1488;51.548;7.222;2023-02-08T04:05:37;2.50;;;2.30;;
2956;SDS011;1488;51.548;7.222;2023-02-08T04:08:04;2.80;;;2.50;;
2956;SDS011;1488;51.548;7.222;2023-02-08T04:10:31;2.30;;;2.10;;
2956;SDS011;1488;51.548;7.222;2023-02-08T04:12:58;2.40;;;2.20;;
2956;SDS011;1488;51.548;7.222;2023-02-08T04:15:24;2.93;;;2.60;;
2956;SDS011;1488;51.548;7.222;2023-02-08T04:17:52;2.53;;;2.33;;
2956;SDS011;1488;51.548;7.222;2023-02-08T04:20:18;2.50;;;2.40;;
2956;SDS011;1488;51.548;7.222;2023-02-08T04:22:47;2.20;;;2.10;;
2956;SDS011;1488;51.548;7.222;2023-02-08T04:25:14;2.77;;;2.57;;
2956;SDS011;1488;51.548;7.222;2023-02-08T04:27:41;2.47;;;2.27;;
2956;SDS011;1488;51.548;7.222;2023-02-08T04:30:08;2.90;;;2.70;;
2956;SDS011;1488;51.548;7.222;2023-02-08T04:32:35;2.13;;;2.00;;
2956;SDS011;1488;51.548;7.222;2023-02-08T04:35:02;2.80;;;2.60;;
2956;SDS011;1488;51.548;7.222;2023-02-08T04:37:30;2.80;;;2.60;;
2956;SDS011;1488;51.548;7.222;2023-02-08T04:39:58;2.57;;;2.37;;
2956;SDS011;1488;51.548;7.222;2023-02-08T04:42:25;2.50;;;2.37;;
2956;SDS011;1488;51.548;7.222;2023-02-08T04:44:51;2.90;;;2.70;;
2956;SDS011;1488;51.548;7.222;2023-02-08T04:47:18;2.20;;;2.10;;
2956;SDS011;1488;51.548;7.222;2023-02-08T04:49:45;2.20;;;2.07;;
2956;SDS011;1488;51.548;7.222;2023-02-08T04:52:12;2.63;;;2.47;;
2956;SDS011;1488;51.548;7.222;2023-02-08T04:54:38;2.83;;;2.63;;
2956;SDS011;1488;51.548;7.222;2023-02-08T04:57:07;3.20;;;3.00;;
2956;SDS011;1488;51.548;7.222;2023-02-08T04:59:35;2.63;;;2.43;;
2956;SDS011;1488;51.548;7.222;2023-02-08T05:02:02;2.43;;;2.23;;
2956;SDS011;1488;51.548;7.222;2023-02-08T05:04:28;2.57;;;2.37;;
2956;SDS011;1488;51.548;7.222;2023-02-08T05:06:55;2.70;;;2.10;;
2956;SDS011;1488;51.548;7.222;2023-02-08T05:09:22;2.47;;;2.27;;
2956;SDS011;1488;51.548;7.222;2023-02-08T05:11:49;2.60;;;2.40;;
2956;SDS011;1488;51.548;7.222;2023-02-08T05:14:17;2.10;;;2.00;;
2956;SDS011;1488;51.548;7.222;2023-02-08T05:16:44;2.83;;;2.63;;
2956;SDS011;1488;51.548;7.222;2023-02-08T05:19:11;2.73;;;2.53;;
2956;SDS011;1488;51.548;7.222;2023-02-08T05:21:38;2.63;;;2.43;;
2956;SDS011;1488;51.548;7.222;2023-02-08T05:24:05;2.93;;;2.73;;
2956;SDS011;1488;51.548;7.222;2023-02-08T05:26:36;2.23;;;2.10;;
2956;SDS011;1488;51.548;7.222;2023-02-08T05:29:03;3.30;;;3.10;;
2956;SDS011;1488;51.548;7.222;2023-02-08T05:31:31;2.63;;;2.43;;
2956;SDS011;1488;51.548;7.222;2023-02-08T05:33:58;2.20;;;2.03;;
2956;SDS011;1488;51.548;7.222;2023-02-08T05:36:25;2.90;;;2.70;;
2956;SDS011;1488;51.548;7.222;2023-02-08T05:38:51;2.20;;;2.00;;
2956;SDS011;1488;51.548;7.222;2023-02-08T05:41:18;2.57;;;2.37;;
2956;SDS011;1488;51.548;7.222;2023-02-08T05:43:46;2.40;;;2.20;;
2956;SDS011;1488;51.548;7.222;2023-02-08T05:46:12;2.60;;;2.40;;
2956;SDS011;1488;51.548;7.222;2023-02-08T05:48:41;3.00;;;2.80;;
2956;SDS011;1488;51.548;7.222;2023-02-08T05:51:08;2.33;;;2.13;;
2956;SDS011;1488;51.548;7.222;2023-02-08T05:53:35;2.47;;;2.30;;
2956;SDS011;1488;51.548;7.222;2023-02-08T05:56:02;2.47;;;2.37;;
2956;SDS011;1488;51.548;7.222;2023-02-08T05:58:29;3.03;;;2.83;;
2956;SDS011;1488;51.548;7.222;2023-02-08T06:00:56;3.07;;;2.77;;
2956;SDS011;1488;51.548;7.222;2023-02-08T06:03:23;2.57;;;2.37;;
2956;SDS011;1488;51.548;7.222;2023-02-08T06:05:51;2.97;;;2.77;;
2956;SDS011;1488;51.548;7.222;2023-02-08T06:08:18;2.33;;;2.23;;
2956;SDS011;1488;51.548;7.222;2023-02-08T06:10:46;2.90;;;2.70;;
2956;SDS011;1488;51.548;7.222;2023-02-08T06:13:14;2.90;;;2.70;;
2956;SDS011;1488;51.548;7.222;2023-02-08T06:15:40;3.17;;;2.87;;
2956;SDS011;1488;51.548;7.222;2023-02-08T06:18:07;2.47;;;2.27;;
2956;SDS011;1488;51.548;7.222;2023-02-08T06:20:34;2.50;;;2.30;;
2956;SDS011;1488;51.548;7.222;2023-02-08T06:23:02;2.97;;;2.67;;
2956;SDS011;1488;51.548;7.222;2023-02-08T06:25:29;2.87;;;2.67;;
2956;SDS011;1488;51.548;7.222;2023-02-08T06:27:56;2.40;;;2.23;;
2956;SDS011;1488;51.548;7.222;2023-02-08T06:30:23;2.80;;;2.60;;
2956;SDS011;1488;51.548;7.222;2023-02-08T06:32:53;2.63;;;2.43;;
2956;SDS011;1488;51.548;7.222;2023-02-08T06:35:20;2.80;;;2.60;;
2956;SDS011;1488;51.548;7.222;2023-02-08T06:37:46;2.60;;;2.40;;
2956;SDS011;1488;51.548;7.222;2023-02-08T06:43:37;3.07;;;2.87;;
2956;SDS011;1488;51.548;7.222;2023-02-08T06:46:04;2.90;;;2.70;;
2956;SDS011;1488;51.548;7.222;2023-02-08T06:48:32;2.77;;;2.57;;
2956;SDS011;1488;51.548;7.222;2023-02-08T06:50:59;2.67;;;2.47;;
2956;SDS011;1488;51.548;7.222;2023-02-08T06:53:26;2.17;;;2.07;;
2956;SDS011;1488;51.548;7.222;2023-02-08T06:55:53;7.20;;;2.90;;
2956;SDS011;1488;51.548;7.222;2023-02-08T06:58:20;3.10;;;2.80;;
2956;SDS011;1488;51.548;7.222;2023-02-08T07:00:49;2.80;;;2.30;;
2956;SDS011;1488;51.548;7.222;2023-02-08T07:03:15;2.63;;;2.43;;
2956;SDS011;1488;51.548;7.222;2023-02-08T07:05:42;2.47;;;2.30;;
2956;SDS011;1488;51.548;7.222;2023-02-08T07:08:09;2.77;;;2.57;;
2956;SDS011;1488;51.548;7.222;2023-02-08T07:10:36;3.57;;;2.80;;
2956;SDS011;1488;51.548;7.222;2023-02-08T07:13:04;5.37;;;2.57;;
2956;SDS011;1488;51.548;7.222;2023-02-08T07:15:31;3.07;;;2.70;;
2956;SDS011;1488;51.548;7.222;2023-02-08T07:18:00;3.03;;;2.70;;
2956;SDS011;1488;51.548;7.222;2023-02-08T07:20:27;2.83;;;2.60;;
2956;SDS011;1488;51.548;7.222;2023-02-08T07:22:54;3.73;;;3.00;;
2956;SDS011;1488;51.548;7.222;2023-02-08T07:25:21;2.50;;;2.30;;
2956;SDS011;1488;51.548;7.222;2023-02-08T07:27:47;4.00;;;2.90;;
2956;SDS011;1488;51.548;7.222;2023-02-08T07:30:15;2.30;;;2.10;;
2956;SDS011;1488;51.548;7.222;2023-02-08T07:32:43;3.40;;;2.83;;
2956;SDS011;1488;51.548;7.222;2023-02-08T07:35:11;2.67;;;2.47;;
2956;SDS011;1488;51.548;7.222;2023-02-08T07:37:38;3.20;;;2.90;;
2956;SDS011;1488;51.548;7.222;2023-02-08T07:40:05;2.87;;;2.67;;
2956;SDS011;1488;51.548;7.222;2023-02-08T07:42:32;2.83;;;2.63;;
2956;SDS011;1488;51.548;7.222;2023-02-08T07:44:59;5.70;;;2.70;;
2956;SDS011;1488;51.548;7.222;2023-02-08T07:47:26;2.77;;;2.57;;
2956;SDS011;1488;51.548;7.222;2023-02-08T07:49:52;2.80;;;2.60;;
2956;SDS011;1488;51.548;7.222;2023-02-08T07:52:20;2.80;;;2.60;;
2956;SDS011;1488;51.548;7.222;2023-02-08T07:54:47;2.83;;;2.63;;
2956;SDS011;1488;51.548;7.222;2023-02-08T08:00:36;3.13;;;2.83;;
2956;SDS011;1488;51.548;7.222;2023-02-08T08:03:03;8.70;;;3.03;;
2956;SDS011;1488;51.548;7.222;2023-02-08T08:05:29;2.60;;;2.40;;
2956;SDS011;1488;51.548;7.222;2023-02-08T08:07:58;2.97;;;2.50;;
2956;SDS011;1488;51.548;7.222;2023-02-08T08:10:24;8.17;;;2.40;;
2956;SDS011;1488;51.548;7.222;2023-02-08T08:12:51;2.73;;;2.50;;
2956;SDS011;1488;51.548;7.222;2023-02-08T08:15:18;3.40;;;3.10;;
2956;SDS011;1488;51.548;7.222;2023-02-08T08:17:45;2.87;;;2.67;;
2956;SDS011;1488;51.548;7.222;2023-02-08T08:20:12;4.20;;;2.70;;
2956;SDS011;1488;51.548;7.222;2023-02-08T08:22:38;3.30;;;3.10;;
2956;SDS011;1488;51.548;7.222;2023-02-08T08:25:07;3.77;;;2.53;;
2956;SDS011;1488;51.548;7.222;2023-02-08T08:27:33;4.63;;;3.30;;
2956;SDS011;1488;51.548;7.222;2023-02-08T08:30:02;4.87;;;3.20;;
2956;SDS011;1488;51.548;7.222;2023-02-08T08:32:29;4.90;;;3.63;;
2956;SDS011;1488;51.548;7.222;2023-02-08T08:34:55;4.20;;;3.80;;
2956;SDS011;1488;51.548;7.222;2023-02-08T08:37:22;4.20;;;3.60;;
2956;SDS011;1488;51.548;7.222;2023-02-08T08:39:49;5.10;;;4.27;;
2956;SDS011;1488;51.548;7.222;2023-02-08T08:42:17;5.23;;;4.00;;
2956;SDS011;1488;51.548;7.222;2023-02-08T08:44:44;5.07;;;4.10;;
2956;SDS011;1488;51.548;7.222;2023-02-08T08:47:11;5.00;;;4.50;;
2956;SDS011;1488;51.548;7.222;2023-02-08T08:49:38;6.97;;;4.63;;
2956;SDS011;1488;51.548;7.222;2023-02-08T08:52:06;5.43;;;4.77;;
2956;SDS011;1488;51.548;7.222;2023-02-08T08:54:33;4.97;;;4.30;;
2956;SDS011;1488;51.548;7.222;2023-02-08T08:57:01;6.37;;;4.67;;
2956;SDS011;1488;51.548;7.222;2023-02-08T08:59:29;5.13;;;4.70;;
2956;SDS011;1488;51.548;7.222;2023-02-08T09:01:56;6.20;;;4.83;;
2956;SDS011;1488;51.548;7.222;2023-02-08T09:04:23;5.13;;;4.67;;
2956;SDS011;1488;51.548;7.222;2023-02-08T09:06:50;6.97;;;5.03;;
2956;SDS011;1488;51.548;7.222;2023-02-08T09:09:18;4.33;;;3.80;;
2956;SDS011;1488;51.548;7.222;2023-02-08T09:11:45;3.77;;;3.47;;
2956;SDS011;1488;51.548;7.222;2023-02-08T09:14:12;8.47;;;4.20;;
2956;SDS011;1488;51.548;7.222;2023-02-08T09:16:41;4.43;;;3.97;;
2956;SDS011;1488;51.548;7.222;2023-02-08T09:19:11;3.90;;;3.60;;
2956;SDS011;1488;51.548;7.222;2023-02-08T09:21:38;5.80;;;4.00;;
2956;SDS011;1488;51.548;7.222;2023-02-08T09:24:05;4.10;;;3.70;;
2956;SDS011;1488;51.548;7.222;2023-02-08T09:26:32;8.90;;;4.00;;
2956;SDS011;1488;51.548;7.222;2023-02-08T09:28:59;4.00;;;3.70;;
2956;SDS011;1488;51.548;7.222;2023-02-08T09:31:27;4.33;;;4.00;;
2956;SDS011;1488;51.548;7.222;2023-02-08T09:33:57;4.37;;;3.97;;
2956;SDS011;1488;51.548;7.222;2023-02-08T09:36:26;3.53;;;3.23;;
2956;SDS011;1488;51.548;7.222;2023-02-08T09:38:54;3.83;;;3.23;;
2956;SDS011;1488;51.548;7.222;2023-02-08T09:41:29;4.10;;;3.70;;
2956;SDS011;1488;51.548;7.222;2023-02-08T09:44:09;12.43;;;3.80;;
2956;SDS011;1488;51.548;7.222;2023-02-08T09:46:44;3.40;;;3.07;;
2956;SDS011;1488;51.548;7.222;2023-02-08T09:49:18;3.23;;;2.97;;
2956;SDS011;1488;51.548;7.222;2023-02-08T09:51:52;9.20;;;3.97;;
2956;SDS011;1488;51.548;7.222;2023-02-08T09:54:25;3.73;;;3.27;;
2956;SDS011;1488;51.548;7.222;2023-02-08T09:56:57;3.77;;;3.47;;
2956;SDS011;1488;51.548;7.222;2023-02-08T09:59:27;3.77;;;3.47;;
2956;SDS011;1488;51.548;7.222;2023-02-08T10:01:58;3.47;;;3.13;;
2956;SDS011;1488;51.548;7.222;2023-02-08T10:04:35;6.40;;;3.07;;
2956;SDS011;1488;51.548;7.222;2023-02-08T10:07:07;3.67;;;3.37;;
2956;SDS011;1488;51.548;7.222;2023-02-08T10:09:36;4.50;;;3.70;;
2956;SDS011;1488;51.548;7.222;2023-02-08T10:12:05;3.13;;;2.93;;
2956;SDS011;1488;51.548;7.222;2023-02-08T10:14:42;4.63;;;3.60;;
2956;SDS011;1488;51.548;7.222;2023-02-08T10:17:34;3.60;;;3.30;;
2956;SDS011;1488;51.548;7.222;2023-02-08T10:20:30;3.60;;;3.03;;
2956;SDS011;1488;51.548;7.222;2023-02-08T10:23:07;3.50;;;2.70;;
2956;SDS011;1488;51.548;7.222;2023-02-08T10:29:12;2.93;;;2.73;;
2956;SDS011;1488;51.548;7.222;2023-02-08T10:31:57;3.53;;;3.20;;
2956;SDS011;1488;51.548;7.222;2023-02-08T10:34:48;3.67;;;3.37;;
2956;SDS011;1488;51.548;7.222;2023-02-08T10:37:20;3.77;;;3.13;;
2956;SDS011;1488;51.548;7.222;2023-02-08T10:39:53;3.47;;;3.17;;
2956;SDS011;1488;51.548;7.222;2023-02-08T10:42:22;3.33;;;3.03;;
2956;SDS011;1488;51.548;7.222;2023-02-08T10:44:55;2.77;;;2.57;;
2956;SDS011;1488;51.548;7.222;2023-02-08T10:47:32;4.30;;;2.93;;
2956;SDS011;1488;51.548;7.222;2023-02-08T10:50:10;3.57;;;3.13;;
2956;SDS011;1488;51.548;7.222;2023-02-08T10:52:45;5.63;;;3.23;;
2956;SDS011;1488;51.548;7.222;2023-02-08T10:55:13;4.33;;;2.87;;
2956;SDS011;1488;51.548;7.222;2023-02-08T10:57:41;2.50;;;2.30;;
2956;SDS011;1488;51.548;7.222;2023-02-08T11:00:10;2.60;;;2.40;;
2956;SDS011;1488;51.548;7.222;2023-02-08T11:02:43;3.10;;;2.90;;
2956;SDS011;1488;51.548;7.222;2023-02-08T11:05:13;3.43;;;3.17;;
2956;SDS011;1488;51.548;7.222;2023-02-08T11:07:42;2.70;;;2.50;;
2956;SDS011;1488;51.548;7.222;2023-02-08T11:10:19;2.90;;;2.60;;
2956;SDS011;1488;51.548;7.222;2023-02-08T11:12:56;3.10;;;2.20;;
2956;SDS011;1488;51.548;7.222;2023-02-08T11:15:26;2.77;;;2.47;;
2956;SDS011;1488;51.548;7.222;2023-02-08T11:17:56;3.13;;;2.73;;
2956;SDS011;1488;51.548;7.222;2023-02-08T11:20:26;3.10;;;2.90;;
2956;SDS011;1488;51.548;7.222;2023-02-08T11:22:57;3.27;;;2.97;;
2956;SDS011;1488;51.548;7.222;2023-02-08T11:25:34;2.33;;;2.10;;
2956;SDS011;1488;51.548;7.222;2023-02-08T11:28:02;3.40;;;2.37;;
2956;SDS011;1488;51.548;7.222;2023-02-08T11:30:30;3.50;;;2.40;;
2956;SDS011;1488;51.548;7.222;2023-02-08T11:33:13;3.00;;;2.80;;
2956;SDS011;1488;51.548;7.222;2023-02-08T11:35:42;3.40;;;2.70;;
2956;SDS011;1488;51.548;7.222;2023-02-08T11:38:28;2.40;;;2.20;;
2956;SDS011;1488;51.548;7.222;2023-02-08T11:40:57;2.23;;;2.10;;
2956;SDS011;1488;51.548;7.222;2023-02-08T11:43:27;2.77;;;2.57;;
2956;SDS011;1488;51.548;7.222;2023-02-08T11:45:57;2.60;;;2.40;;
2956;SDS011;1488;51.548;7.222;2023-02-08T11:48:29;2.83;;;2.37;;
2956;SDS011;1488;51.548;7.222;2023-02-08T11:51:03;2.73;;;2.53;;
2956;SDS011;1488;51.548;7.222;2023-02-08T11:53:31;3.17;;;2.97;;
2956;SDS011;1488;51.548;7.222;2023-02-08T11:56:03;2.63;;;2.43;;
2956;SDS011;1488;51.548;7.222;2023-02-08T11:58:39;2.70;;;2.50;;
2956;SDS011;1488;51.548;7.222;2023-02-08T12:01:15;2.83;;;2.63;;
2956;SDS011;1488;51.548;7.222;2023-02-08T12:03:45;2.33;;;2.13;;
2956;SDS011;1488;51.548;7.222;2023-02-08T12:06:18;2.30;;;2.10;;
2956;SDS011;1488;51.548;7.222;2023-02-08T12:08:56;2.47;;;2.27;;
2956;SDS011;1488;51.548;7.222;2023-02-08T12:11:31;4.00;;;2.47;;
2956;SDS011;1488;51.548;7.222;2023-02-08T12:14:10;2.60;;;2.40;;
2956;SDS011;1488;51.548;7.222;2023-02-08T12:16:55;2.57;;;2.40;;
2956;SDS011;1488;51.548;7.222;2023-02-08T12:19:42;2.60;;;2.40;;
2956;SDS011;1488;51.548;7.222;2023-02-08T12:22:28;2.93;;;2.73;;
2956;SDS011;1488;51.548;7.222;2023-02-08T12:24:58;2.53;;;2.33;;
2956;SDS011;1488;51.548;7.222;2023-02-08T12:27:39;2.90;;;2.57;;
2956;SDS011;1488;51.548;7.222;2023-02-08T12:30:13;2.87;;;2.47;;
2956;SDS011;1488;51.548;7.222;2023-02-08T12:32:49;1.97;;;1.80;;
2956;SDS011;1488;51.548;7.222;2023-02-08T12:38:33;2.30;;;2.20;;
2956;SDS011;1488;51.548;7.222;2023-02-08T12:41:34;2.10;;;1.90;;
2956;SDS011;1488;51.548;7.222;2023-02-08T12:44:09;2.90;;;2.70;;
2956;SDS011;1488;51.548;7.222;2023-02-08T12:46:52;5.10;;;2.37;;
2956;SDS011;1488;51.548;7.222;2023-02-08T12:49:35;2.43;;;2.23;;
2956;SDS011;1488;51.548;7.222;2023-02-08T12:52:16;2.60;;;2.40;;
2956;SDS011;1488;51.548;7.222;2023-02-08T12:54:51;2.43;;;2.23;;
2956;SDS011;1488;51.548;7.222;2023-02-08T12:57:22;2.70;;;2.50;;
2956;SDS011;1488;51.548;7.222;2023-02-08T12:59:54;3.30;;;2.23;;
2956;SDS011;1488;51.548;7.222;2023-02-08T13:02:28;3.40;;;2.47;;
2956;SDS011;1488;51.548;7.222;2023-02-08T13:04:58;3.03;;;2.60;;
2956;SDS011;1488;51.548;7.222;2023-02-08T13:07:30;3.00;;;1.93;;
2956;SDS011;1488;51.548;7.222;2023-02-08T13:10:02;4.13;;;2.53;;
2956;SDS011;1488;51.548;7.222;2023-02-08T13:12:33;2.27;;;2.00;;
2956;SDS011;1488;51.548;7.222;2023-02-08T13:15:06;1.87;;;1.77;;
2956;SDS011;1488;51.548;7.222;2023-02-08T13:17:40;2.57;;;1.93;;
2956;SDS011;1488;51.548;7.222;2023-02-08T13:20:17;1.97;;;1.87;;
2956;SDS011;1488;51.548;7.222;2023-02-08T13:22:51;2.10;;;2.00;;
2956;SDS011;1488;51.548;7.222;2023-02-08T13:25:24;2.37;;;1.93;;
2956;SDS011;1488;51.548;7.222;2023-02-08T13:27:54;2.17;;;2.00;;
2956;SDS011;1488;51.548;7.222;2023-02-08T13:30:26;3.33;;;1.90;;
2956;SDS011;1488;51.548;7.222;2023-02-08T13:32:53;2.27;;;2.07;;
2956;SDS011;1488;51.548;7.222;2023-02-08T13:35:22;3.20;;;2.10;;
2956;SDS011;1488;51.548;7.222;2023-02-08T13:37:54;2.13;;;2.03;;
2956;SDS011;1488;51.548;7.222;2023-02-08T13:40:26;2.13;;;1.93;;
2956;SDS011;1488;51.548;7.222;2023-02-08T13:42:56;1.70;;;1.50;;
2956;SDS011;1488;51.548;7.222;2023-02-08T13:45:30;2.57;;;1.90;;
2956;SDS011;1488;51.548;7.222;2023-02-08T13:48:01;2.03;;;1.83;;
2956;SDS011;1488;51.548;7.222;2023-02-08T13:50:40;2.60;;;2.40;;
2956;SDS011;1488;51.548;7.222;2023-02-08T13:53:10;2.30;;;1.60;;
2956;SDS011;1488;51.548;7.222;2023-02-08T13:58:25;2.33;;;2.13;;
2956;SDS011;1488;51.548;7.222;2023-02-08T14:01:07;2.17;;;1.97;;
2956;SDS011;1488;51.548;7.222;2023-02-08T14:03:46;1.90;;;1.80;;
2956;SDS011;1488;51.548;7.222;2023-02-08T14:06:52;2.37;;;2.00;;
2956;SDS011;1488;51.548;7.222;2023-02-08T14:09:23;3.43;;;1.80;;
2956;SDS011;1488;51.548;7.222;2023-02-08T14:11:59;2.13;;;1.93;;
2956;SDS011;1488;51.548;7.222;2023-02-08T14:14:28;1.60;;;1.50;;
2956;SDS011;1488;51.548;7.222;2023-02-08T14:17:17;1.77;;;1.67;;
2956;SDS011;1488;51.548;7.222;2023-02-08T14:19:54;1.77;;;1.67;;
2956;SDS011;1488;51.548;7.222;2023-02-08T14:22:23;2.23;;;2.03;;
2956;SDS011;1488;51.548;7.222;2023-02-08T14:24:59;2.00;;;1.80;;
2956;SDS011;1488;51.548;7.222;2023-02-08T14:27:30;2.10;;;2.00;;
2956;SDS011;1488;51.548;7.222;2023-02-08T14:30:03;1.53;;;1.43;;
2956;SDS011;1488;51.548;7.222;2023-02-08T14:32:34;2.17;;;1.90;;
2956;SDS011;1488;51.548;7.222;2023-02-08T14:35:03;1.83;;;1.73;;
2956;SDS011;1488;51.548;7.222;2023-02-08T14:37:33;3.03;;;1.50;;
2956;SDS011;1488;51.548;7.222;2023-02-08T14:43:26;5.03;;;1.80;;
2956;SDS011;1488;51.548;7.222;2023-02-08T14:45:55;2.23;;;1.80;;
2956;SDS011;1488;51.548;7.222;2023-02-08T14:48:24;1.97;;;1.77;;
2956;SDS011;1488;51.548;7.222;2023-02-08T14:50:59;2.17;;;1.97;;
2956;SDS011;1488;51.548;7.222;2023-02-08T14:53:41;2.27;;;2.07;;
2956;SDS011;1488;51.548;7.222;2023-02-08T14:56:15;3.60;;;1.90;;
2956;SDS011;1488;51.548;7.222;2023-02-08T14:58:44;1.53;;;1.43;;
2956;SDS011;1488;51.548;7.222;2023-02-08T15:01:16;2.17;;;1.90;;
2956;SDS011;1488;51.548;7.222;2023-02-08T15:03:45;2.90;;;1.70;;
2956;SDS011;1488;51.548;7.222;2023-02-08T15:06:33;4.20;;;2.03;;
2956;SDS011;1488;51.548;7.222;2023-02-08T15:09:21;3.10;;;1.80;;
2956;SDS011;1488;51.548;7.222;2023-02-08T15:11:52;6.77;;;1.90;;
2956;SDS011;1488;51.548;7.222;2023-02-08T15:14:24;1.77;;;1.67;;
2956;SDS011;1488;51.548;7.222;2023-02-08T15:16:51;1.67;;;1.50;;
2956;SDS011;1488;51.548;7.222;2023-02-08T15:19:21;2.03;;;1.80;;
2956;SDS011;1488;51.548;7.222;2023-02-08T15:21:52;2.67;;;1.73;;
2956;SDS011;1488;51.548;7.222;2023-02-08T15:24:19;3.87;;;2.30;;
2956;SDS011;1488;51.548;7.222;2023-02-08T15:26:48;2.57;;;1.80;;
2956;SDS011;1488;51.548;7.222;2023-02-08T15:29:17;1.60;;;1.50;;
2956;SDS011;1488;51.548;7.222;2023-02-08T15:31:45;2.10;;;1.83;;
2956;SDS011;1488;51.548;7.222;2023-02-08T15:34:13;2.07;;;1.50;;
2956;SDS011;1488;51.548;7.222;2023-02-08T15:36:43;4.00;;;1.77;;
2956;SDS011;1488;51.548;7.222;2023-02-08T15:39:15;1.93;;;1.23;;
2956;SDS011;1488;51.548;7.222;2023-02-08T15:41:54;2.10;;;1.90;;
2956;SDS011;1488;51.548;7.222;2023-02-08T15:44:23;2.20;;;1.50;;
2956;SDS011;1488;51.548;7.222;2023-02-08T15:46:53;2.17;;;1.63;;
2956;SDS011;1488;51.548;7.222;2023-02-08T15:49:23;2.23;;;1.63;;
2956;SDS011;1488;51.548;7.222;2023-02-08T15:51:54;1.70;;;1.57;;
2956;SDS011;1488;51.548;7.222;2023-02-08T15:54:22;4.20;;;1.43;;
2956;SDS011;1488;51.548;7.222;2023-02-08T15:56:50;2.37;;;1.40;;
2956;SDS011;1488;51.548;7.222;2023-02-08T15:59:21;3.83;;;1.70;;
2956;SDS011;1488;51.548;7.222;2023-02-08T16:01:51;2.07;;;1.57;;
2956;SDS011;1488;51.548;7.222;2023-02-08T16:04:19;1.73;;;1.27;;
2956;SDS011;1488;51.548;7.222;2023-02-08T16:06:47;1.60;;;1.50;;